createdAt,value
2023-04-21T00:01:00.771Z,19.88
2023-04-21T00:03:28.616Z,19.42
2023-04-21T00:05:58.949Z,19.70
2023-04-21T00:08:28.853Z,20.13
2023-04-21T00:10:55.893Z,19.17
2023-04-21T00:13:23.950Z,19.02
2023-04-21T00:15:51.449Z,19.67
2023-04-21T00:18:18.771Z,19.70
2023-04-21T00:20:45.842Z,19.83
2023-04-21T00:23:12.875Z,19.30
2023-04-21T00:25:39.970Z,17.85
2023-04-21T00:28:06.976Z,19.17
2023-04-21T00:30:34.050Z,19.67
2023-04-21T00:33:01.227Z,19.77
2023-04-21T00:35:28.469Z,20.67
2023-04-21T00:37:55.610Z,20.15
2023-04-21T00:40:22.716Z,20.25
2023-04-21T00:42:49.763Z,20.55
2023-04-21T00:45:16.888Z,22.30
2023-04-21T00:47:44.187Z,20.85
2023-04-21T00:50:11.797Z,20.60
2023-04-21T00:52:43.993Z,22.38
2023-04-21T00:55:11.487Z,22.35
2023-04-21T00:57:38.602Z,21.00
2023-04-21T01:00:06.806Z,21.52
2023-04-21T01:02:36.419Z,20.90
2023-04-21T01:05:09.153Z,22.10
2023-04-21T01:07:36.414Z,21.65
2023-04-21T01:10:04.296Z,21.85
2023-04-21T01:12:31.422Z,21.95
2023-04-21T01:14:58.649Z,22.20
2023-04-21T01:17:25.848Z,21.65
2023-04-21T01:19:56.548Z,21.88
2023-04-21T01:22:23.637Z,20.80
2023-04-21T01:24:50.754Z,21.60
2023-04-21T01:27:19.934Z,21.40
2023-04-21T01:29:49.489Z,22.80
2023-04-21T01:32:22.298Z,22.88
2023-04-21T01:34:50.145Z,23.20
2023-04-21T01:37:20.679Z,23.33
2023-04-21T01:39:54.898Z,23.02
2023-04-21T01:44:50.822Z,22.63
2023-04-21T01:47:18.713Z,23.63
2023-04-21T01:49:45.773Z,22.20
2023-04-21T01:52:12.968Z,23.52
2023-04-21T01:54:40.269Z,22.40
2023-04-21T01:57:07.531Z,22.98
2023-04-21T01:59:34.665Z,23.65
2023-04-21T02:02:01.758Z,23.25
2023-04-21T02:04:28.986Z,22.83
2023-04-21T02:06:56.132Z,22.23
2023-04-21T02:09:23.206Z,22.92
2023-04-21T02:11:50.396Z,22.17
2023-04-21T02:14:17.414Z,22.02
2023-04-21T02:16:44.549Z,21.67
2023-04-21T02:19:12.025Z,21.73
2023-04-21T02:21:39.015Z,21.10
2023-04-21T02:24:06.266Z,21.20
2023-04-21T02:26:33.337Z,21.13
2023-04-21T02:29:00.866Z,19.85
2023-04-21T02:31:28.110Z,21.25
2023-04-21T02:33:56.012Z,22.42
2023-04-21T02:36:23.032Z,22.13
2023-04-21T02:38:50.067Z,21.90
2023-04-21T02:41:17.154Z,21.67
2023-04-21T02:43:44.217Z,22.63
2023-04-21T02:46:11.203Z,21.50
2023-04-21T02:48:38.304Z,21.48
2023-04-21T02:51:05.500Z,20.25
2023-04-21T02:53:32.715Z,19.80
2023-04-21T02:56:02.487Z,20.25
2023-04-21T02:58:29.625Z,20.88
2023-04-21T03:00:57.166Z,22.02
2023-04-21T03:03:24.418Z,20.42
2023-04-21T03:05:57.556Z,23.05
2023-04-21T03:08:24.819Z,20.50
2023-04-21T03:10:52.012Z,20.77
2023-04-21T03:13:19.111Z,20.85
2023-04-21T03:15:46.611Z,21.33
2023-04-21T03:18:13.762Z,21.25
2023-04-21T03:20:40.831Z,22.13
2023-04-21T03:23:07.994Z,21.35
2023-04-21T03:25:35.164Z,20.92
2023-04-21T03:28:02.472Z,20.48
2023-04-21T03:30:29.560Z,19.88
2023-04-21T03:32:56.944Z,21.08
2023-04-21T03:35:24.071Z,21.35
2023-04-21T03:37:51.153Z,22.30
2023-04-21T03:40:18.199Z,22.05
2023-04-21T03:42:45.346Z,20.98
2023-04-21T03:45:12.412Z,22.52
2023-04-21T03:47:39.507Z,21.60
2023-04-21T03:50:07.170Z,21.05
2023-04-21T03:52:34.190Z,20.35
2023-04-21T03:55:01.624Z,20.75
2023-04-21T03:57:28.696Z,19.02
2023-04-21T03:59:55.790Z,22.33
2023-04-21T04:02:23.264Z,20.33
2023-04-21T04:04:50.717Z,21.77
2023-04-21T04:07:17.815Z,21.50
2023-04-21T04:09:45.202Z,20.92
2023-04-21T04:12:12.288Z,22.00
2023-04-21T04:14:39.742Z,21.70
2023-04-21T04:17:07.008Z,20.92
2023-04-21T04:19:34.323Z,22.65
2023-04-21T04:22:01.670Z,22.55
2023-04-21T04:24:28.924Z,21.98
2023-04-21T04:26:58.045Z,22.20
2023-04-21T04:29:25.164Z,22.67
2023-04-21T04:31:52.600Z,22.58
2023-04-21T04:34:19.794Z,22.00
2023-04-21T04:36:48.308Z,21.40
2023-04-21T04:39:17.344Z,20.50
2023-04-21T04:41:44.665Z,21.63
2023-04-21T04:44:11.674Z,21.95
2023-04-21T04:46:39.631Z,21.95
2023-04-21T04:49:06.739Z,22.90
2023-04-21T04:51:33.902Z,21.92
2023-04-21T04:54:01.245Z,23.67
2023-04-21T04:56:30.594Z,21.75
2023-04-21T04:58:57.588Z,21.85
2023-04-21T05:01:30.380Z,22.90
2023-04-21T05:03:57.951Z,20.65
2023-04-21T05:06:26.202Z,20.00
2023-04-21T05:08:53.255Z,21.75
2023-04-21T05:11:20.515Z,22.17
2023-04-21T05:13:47.624Z,22.40
2023-04-21T05:16:15.455Z,22.27
2023-04-21T05:18:42.487Z,21.25
2023-04-21T05:21:09.576Z,23.48
2023-04-21T05:23:36.619Z,22.88
2023-04-21T05:26:04.719Z,22.90
2023-04-21T05:28:32.413Z,21.30
2023-04-21T05:31:00.019Z,21.77
2023-04-21T05:33:27.179Z,22.88
2023-04-21T05:35:54.297Z,21.35
2023-04-21T05:38:21.398Z,22.50
2023-04-21T05:40:56.092Z,21.92
2023-04-21T05:43:23.387Z,22.02
2023-04-21T05:45:50.501Z,22.40
2023-04-21T05:48:17.600Z,20.83
2023-04-21T05:50:44.726Z,22.13
2023-04-21T05:53:11.911Z,21.70
2023-04-21T05:55:38.953Z,23.10
2023-04-21T05:58:06.354Z,22.48
2023-04-21T06:00:33.789Z,22.23
2023-04-21T06:03:01.081Z,22.05
2023-04-21T06:05:28.214Z,21.83
2023-04-21T06:07:55.261Z,21.77
2023-04-21T06:10:22.400Z,21.67
2023-04-21T06:12:49.465Z,22.50
2023-04-21T06:15:16.596Z,20.48
2023-04-21T06:17:43.647Z,22.92
2023-04-21T06:20:11.825Z,22.10
2023-04-21T06:22:38.882Z,22.67
2023-04-21T06:25:06.644Z,22.58
2023-04-21T06:27:33.805Z,21.85
2023-04-21T06:30:00.953Z,21.20
2023-04-21T06:32:28.036Z,21.63
2023-04-21T06:34:55.137Z,21.77
2023-04-21T06:37:22.136Z,22.05
2023-04-21T06:39:49.192Z,22.52
2023-04-21T06:42:16.485Z,20.95
2023-04-21T06:44:43.550Z,20.88
2023-04-21T06:47:10.790Z,21.75
2023-04-21T06:49:38.013Z,21.17
2023-04-21T06:52:05.277Z,21.52
2023-04-21T06:54:32.430Z,22.02
2023-04-21T06:56:59.522Z,21.83
2023-04-21T06:59:26.572Z,21.23
2023-04-21T07:01:53.677Z,21.45
2023-04-21T07:04:21.084Z,21.42
2023-04-21T07:06:48.829Z,21.05
2023-04-21T07:09:15.861Z,20.27
2023-04-21T07:11:42.902Z,20.77
2023-04-21T07:14:09.958Z,20.05
2023-04-21T07:16:36.971Z,20.42
2023-04-21T07:19:04.132Z,22.15
2023-04-21T07:21:32.235Z,19.40
2023-04-21T07:23:59.384Z,20.73
2023-04-21T07:26:26.455Z,19.67
2023-04-21T07:28:53.741Z,20.77
2023-04-21T07:31:20.903Z,19.50
2023-04-21T07:33:47.989Z,20.85
2023-04-21T07:36:15.670Z,20.35
2023-04-21T07:38:43.595Z,19.92
2023-04-21T07:41:14.185Z,19.75
2023-04-21T07:43:41.356Z,18.85
2023-04-21T07:46:08.490Z,18.42
2023-04-21T07:48:35.781Z,20.23
2023-04-21T07:51:04.048Z,18.83
2023-04-21T07:53:31.260Z,20.17
2023-04-21T07:55:58.683Z,20.80
2023-04-21T07:58:25.776Z,18.98
2023-04-21T08:00:52.858Z,19.55
2023-04-21T08:03:22.191Z,19.50
2023-04-21T08:05:51.025Z,19.70
2023-04-21T08:08:20.598Z,19.73
2023-04-21T08:10:47.825Z,19.90
2023-04-21T08:13:15.266Z,19.92
2023-04-21T08:15:42.409Z,18.80
2023-04-21T08:18:09.747Z,19.67
2023-04-21T08:20:36.846Z,19.92
2023-04-21T08:23:04.041Z,20.42
2023-04-21T08:25:34.384Z,19.45
2023-04-21T08:28:01.636Z,19.77
2023-04-21T08:30:28.971Z,18.85
2023-04-21T08:32:56.237Z,18.10
2023-04-21T08:35:23.496Z,19.15
2023-04-21T08:37:51.667Z,19.63
2023-04-21T08:40:20.470Z,18.83
2023-04-21T08:42:48.511Z,22.88
2023-04-21T08:45:15.654Z,19.58
2023-04-21T08:47:43.077Z,20.67
2023-04-21T08:50:13.875Z,20.92
2023-04-21T08:52:41.066Z,18.80
2023-04-21T08:55:10.087Z,17.83
2023-04-21T08:57:37.128Z,18.48
2023-04-21T09:00:07.888Z,18.92
2023-04-21T09:03:01.291Z,18.42
2023-04-21T09:05:32.158Z,17.27
2023-04-21T09:08:12.107Z,17.90
2023-04-21T09:10:55.257Z,18.00
2023-04-21T09:13:33.058Z,17.80
2023-04-21T09:16:01.503Z,16.73
2023-04-21T09:18:37.098Z,18.80
2023-04-21T09:21:18.845Z,20.60
2023-04-21T09:23:55.668Z,19.13
2023-04-21T09:26:23.384Z,19.70
2023-04-21T09:28:52.363Z,19.83
2023-04-21T09:31:29.124Z,20.13
2023-04-21T09:34:01.115Z,19.75
2023-04-21T09:36:30.990Z,18.85
2023-04-21T09:39:29.112Z,19.90
2023-04-21T09:41:50.182Z,20.02
2023-04-21T09:44:18.475Z,19.60
2023-04-21T09:46:50.260Z,19.90
2023-04-21T09:49:23.781Z,19.30
2023-04-21T09:56:58.351Z,19.85
2023-04-21T09:59:29.434Z,19.63
2023-04-21T10:02:00.038Z,19.00
2023-04-21T10:04:29.433Z,17.70
2023-04-21T10:06:57.237Z,18.85
2023-04-21T10:09:27.426Z,19.23
2023-04-21T10:11:55.826Z,17.08
2023-04-21T10:14:23.161Z,17.40
2023-04-21T10:17:10.851Z,18.27
2023-04-21T10:19:47.715Z,18.52
2023-04-21T10:22:14.844Z,18.13
2023-04-21T10:24:43.383Z,16.08
2023-04-21T10:27:12.295Z,17.17
2023-04-21T10:29:52.271Z,17.27
2023-04-21T10:32:45.602Z,16.13
2023-04-21T10:35:25.181Z,17.90
2023-04-21T10:37:52.581Z,17.10
2023-04-21T10:40:43.740Z,17.08
2023-04-21T10:43:46.587Z,17.48
2023-04-21T10:46:38.166Z,15.73
2023-04-21T10:49:10.241Z,15.82
2023-04-21T10:51:59.423Z,14.60
2023-04-21T10:54:53.880Z,16.45
2023-04-21T10:57:21.313Z,15.57
2023-04-21T10:59:49.733Z,14.05
2023-04-21T11:02:18.934Z,14.63
2023-04-21T11:04:51.280Z,13.23
2023-04-21T11:07:25.987Z,13.85
2023-04-21T11:10:02.481Z,13.13
2023-04-21T11:12:38.576Z,14.00
2023-04-21T11:15:07.985Z,12.48
2023-04-21T11:17:40.023Z,13.05
2023-04-21T11:20:08.019Z,13.52
2023-04-21T11:22:37.955Z,13.23
2023-04-21T11:25:05.463Z,12.82
2023-04-21T11:27:32.564Z,12.35
2023-04-21T11:30:02.989Z,11.88
2023-04-21T11:32:30.870Z,12.18
2023-04-21T11:34:58.005Z,11.85
2023-04-21T11:37:30.268Z,12.15
2023-04-21T11:39:59.639Z,13.38
2023-04-21T11:42:26.994Z,13.52
2023-04-21T11:44:58.167Z,13.75
2023-04-21T11:47:27.230Z,14.95
2023-04-21T11:49:59.380Z,12.88
2023-04-21T11:52:27.673Z,13.45
2023-04-21T11:55:02.138Z,13.23
2023-04-21T11:57:30.530Z,13.35
2023-04-21T12:00:11.963Z,12.50
2023-04-21T12:02:39.356Z,12.63
2023-04-21T12:05:09.265Z,11.85
2023-04-21T12:07:48.174Z,12.98
2023-04-21T12:10:19.255Z,13.40
2023-04-21T12:12:46.919Z,13.02
2023-04-21T12:15:20.369Z,13.35
2023-04-21T12:17:49.293Z,12.68
2023-04-21T12:20:18.929Z,12.27
2023-04-21T12:22:46.840Z,13.07
2023-04-21T12:25:14.388Z,12.40
2023-04-21T12:27:58.001Z,11.20
2023-04-21T12:30:25.482Z,11.57
2023-04-21T12:32:55.969Z,12.38
2023-04-21T12:35:23.527Z,12.45
2023-04-21T12:37:50.828Z,12.57
2023-04-21T12:40:17.928Z,12.35
2023-04-21T12:42:45.064Z,12.15
2023-04-21T12:45:12.344Z,11.55
2023-04-21T12:47:39.598Z,11.93
2023-04-21T12:50:07.385Z,11.77
2023-04-21T12:52:34.490Z,11.30
2023-04-21T12:55:01.536Z,12.25
2023-04-21T12:57:29.025Z,11.52
2023-04-21T12:59:56.193Z,11.10
2023-04-21T13:02:23.362Z,11.80
2023-04-21T13:04:50.450Z,12.95
2023-04-21T13:07:21.400Z,12.38
2023-04-21T13:09:49.111Z,11.73
2023-04-21T13:12:16.220Z,12.02
2023-04-21T13:14:43.190Z,11.90
2023-04-21T13:17:10.779Z,11.52
2023-04-21T13:19:37.873Z,12.20
2023-04-21T13:22:04.966Z,11.40
2023-04-21T13:24:32.044Z,12.18
2023-04-21T13:26:59.770Z,10.27
2023-04-21T13:29:30.380Z,11.00
2023-04-21T13:31:57.741Z,11.02
2023-04-21T13:34:24.785Z,11.15
2023-04-21T13:36:51.848Z,11.45
2023-04-21T13:39:18.897Z,11.15
2023-04-21T13:41:46.015Z,10.48
2023-04-21T13:44:13.298Z,10.45
2023-04-21T13:46:40.541Z,9.73
2023-04-21T13:49:08.119Z,10.10
2023-04-21T13:51:35.657Z,8.82
2023-04-21T13:54:02.766Z,8.40
2023-04-21T13:56:29.950Z,9.35
2023-04-21T13:58:57.948Z,9.55
2023-04-21T14:01:25.011Z,9.40
2023-04-21T14:03:52.678Z,8.50
2023-04-21T14:06:20.322Z,8.35
2023-04-21T14:08:47.389Z,9.10
2023-04-21T14:11:14.987Z,8.90
2023-04-21T14:13:56.146Z,8.52
2023-04-21T14:16:29.214Z,9.38
2023-04-21T14:18:56.393Z,8.88
2023-04-21T14:21:23.522Z,7.80
2023-04-21T14:23:50.729Z,7.47
2023-04-21T14:26:17.835Z,6.93
2023-04-21T14:28:44.927Z,7.45
2023-04-21T14:31:12.055Z,6.53
2023-04-21T14:33:39.440Z,6.60
2023-04-21T14:36:06.788Z,6.97
2023-04-21T14:38:34.573Z,6.80
2023-04-21T14:41:02.021Z,7.15
2023-04-21T14:43:29.775Z,6.72
2023-04-21T14:45:56.903Z,6.35
2023-04-21T14:48:24.025Z,5.65
2023-04-21T14:50:51.438Z,5.50
2023-04-21T14:53:18.636Z,4.90
2023-04-21T14:55:45.892Z,5.78
2023-04-21T14:58:13.140Z,5.65
2023-04-21T15:00:40.265Z,5.13
2023-04-21T15:03:07.474Z,5.32
2023-04-21T15:05:35.011Z,5.80
2023-04-21T15:08:02.406Z,5.40
2023-04-21T15:10:31.084Z,5.55
2023-04-21T15:12:58.298Z,5.07
2023-04-21T15:15:25.523Z,5.50
2023-04-21T15:17:52.566Z,4.95
2023-04-21T15:20:22.619Z,5.53
2023-04-21T15:22:56.744Z,5.28
2023-04-21T15:25:23.868Z,4.97
2023-04-21T15:27:51.143Z,5.05
2023-04-21T15:30:18.341Z,4.45
2023-04-21T15:32:45.389Z,4.82
2023-04-21T15:35:12.482Z,4.70
2023-04-21T15:37:40.667Z,4.82
2023-04-21T15:40:09.053Z,5.13
2023-04-21T15:42:36.192Z,5.55
2023-04-21T15:45:04.263Z,5.10
2023-04-21T15:47:32.137Z,5.07
2023-04-21T15:49:59.271Z,4.75
2023-04-21T15:52:26.521Z,4.65
2023-04-21T15:54:53.608Z,5.20
2023-04-21T15:57:20.774Z,4.80
2023-04-21T15:59:47.947Z,4.05
2023-04-21T16:02:15.139Z,3.75
2023-04-21T16:04:43.029Z,4.00
2023-04-21T16:07:11.155Z,4.28
2023-04-21T16:09:38.202Z,4.38
2023-04-21T16:12:08.811Z,4.30
2023-04-21T16:14:53.315Z,4.18
2023-04-21T16:17:25.626Z,4.20
2023-04-21T16:19:53.813Z,4.15
2023-04-21T16:22:20.959Z,4.18
2023-04-21T16:24:48.841Z,4.50
2023-04-21T16:27:16.373Z,4.85
2023-04-21T16:29:43.468Z,4.38
2023-04-21T16:32:10.780Z,4.70
2023-04-21T16:34:38.118Z,4.78
2023-04-21T16:37:05.538Z,4.97
2023-04-21T16:39:33.102Z,4.55
2023-04-21T16:42:00.213Z,4.65
2023-04-21T16:44:27.392Z,5.22
2023-04-21T16:46:54.582Z,5.25
2023-04-21T16:49:21.738Z,4.88
2023-04-21T16:51:48.795Z,4.95
2023-04-21T16:54:15.919Z,4.63
2023-04-21T16:56:43.037Z,4.82
2023-04-21T16:59:10.112Z,5.57
2023-04-21T17:01:37.304Z,5.25
2023-04-21T17:04:04.697Z,4.95
2023-04-21T17:06:32.044Z,4.90
2023-04-21T17:09:02.133Z,4.72
2023-04-21T17:11:31.954Z,5.70
2023-04-21T17:13:59.112Z,5.20
2023-04-21T17:16:26.420Z,5.60
2023-04-21T17:18:53.478Z,5.88
2023-04-21T17:21:20.914Z,5.85
2023-04-21T17:23:48.095Z,5.78
2023-04-21T17:26:15.469Z,6.00
2023-04-21T17:28:42.637Z,5.85
2023-04-21T17:31:15.745Z,6.22
2023-04-21T17:33:44.401Z,6.25
2023-04-21T17:36:12.486Z,6.30
2023-04-21T17:38:40.268Z,5.75
2023-04-21T17:41:07.905Z,5.85
2023-04-21T17:43:35.608Z,6.60
2023-04-21T17:46:02.702Z,5.80
2023-04-21T17:48:29.892Z,6.45
2023-04-21T17:50:56.915Z,6.50
2023-04-21T17:53:24.053Z,7.15
2023-04-21T17:55:51.586Z,6.28
2023-04-21T17:58:18.765Z,6.05
2023-04-21T18:00:46.032Z,6.05
2023-04-21T18:03:13.188Z,5.82
2023-04-21T18:05:40.799Z,6.65
2023-04-21T18:08:11.373Z,6.78
2023-04-21T18:10:38.492Z,6.10
2023-04-21T18:13:06.391Z,6.40
2023-04-21T18:15:33.456Z,6.60
2023-04-21T18:18:00.749Z,6.57
2023-04-21T18:20:28.054Z,5.78
2023-04-21T18:22:55.107Z,6.15
2023-04-21T18:25:40.305Z,6.10
2023-04-21T18:28:11.062Z,6.13
2023-04-21T18:30:39.341Z,6.70
2023-04-21T18:33:06.541Z,5.63
2023-04-21T18:35:34.284Z,6.70
2023-04-21T18:38:01.702Z,7.10
2023-04-21T18:40:28.795Z,6.57
2023-04-21T18:42:57.399Z,6.80
2023-04-21T18:45:24.895Z,6.80
2023-04-21T18:47:52.059Z,7.38
2023-04-21T18:50:19.553Z,6.25
2023-04-21T18:52:46.822Z,6.70
2023-04-21T18:55:18.093Z,6.60
2023-04-21T18:57:45.189Z,7.18
2023-04-21T19:00:12.910Z,6.38
2023-04-21T19:02:40.876Z,6.80
2023-04-21T19:05:08.541Z,6.30
2023-04-21T19:07:36.070Z,6.88
2023-04-21T19:10:03.117Z,5.40
2023-04-21T19:12:30.301Z,3.65
2023-04-21T19:14:57.595Z,3.17
2023-04-21T19:17:24.749Z,2.63
2023-04-21T19:19:51.863Z,3.00
2023-04-21T19:22:20.154Z,3.80
2023-04-21T19:24:47.583Z,4.57
2023-04-21T19:27:14.906Z,4.30
2023-04-21T19:29:42.096Z,5.15
2023-04-21T19:32:09.223Z,4.50
2023-04-21T19:34:36.457Z,4.47
2023-04-21T19:37:03.888Z,4.80
2023-04-21T19:39:33.174Z,5.85
2023-04-21T19:42:00.272Z,6.00
2023-04-21T19:44:27.327Z,6.13
2023-04-21T19:46:54.459Z,5.10
2023-04-21T19:49:21.459Z,5.28
2023-04-21T19:51:48.576Z,5.82
2023-04-21T19:54:16.744Z,5.40
2023-04-21T19:56:44.811Z,4.32
2023-04-21T19:59:11.949Z,4.88
2023-04-21T20:01:39.740Z,4.85
2023-04-21T20:04:07.232Z,4.65
2023-04-21T20:06:35.532Z,4.68
2023-04-21T20:09:06.027Z,4.63
2023-04-21T20:11:34.191Z,4.22
2023-04-21T20:14:01.318Z,4.47
2023-04-21T20:16:28.996Z,4.22
2023-04-21T20:18:56.141Z,3.90
2023-04-21T20:21:23.194Z,3.67
2023-04-21T20:23:50.782Z,3.55
2023-04-21T20:26:20.024Z,4.05
2023-04-21T20:28:47.603Z,3.80
2023-04-21T20:31:15.243Z,3.53
2023-04-21T20:33:42.341Z,3.20
2023-04-21T20:36:09.433Z,3.50
2023-04-21T20:38:36.702Z,3.30
2023-04-21T20:41:03.821Z,3.13
2023-04-21T20:43:34.410Z,3.20
2023-04-21T20:46:01.781Z,3.50
2023-04-21T20:48:31.108Z,3.20
2023-04-21T20:50:58.216Z,2.92
2023-04-21T20:53:26.295Z,3.10
2023-04-21T20:55:53.490Z,3.35
2023-04-21T20:58:20.614Z,3.28
2023-04-21T21:00:47.752Z,3.10
2023-04-21T21:03:15.285Z,3.22
2023-04-21T21:05:42.814Z,3.60
2023-04-21T21:08:09.959Z,3.25
2023-04-21T21:10:37.634Z,3.05
2023-04-21T21:13:04.807Z,2.95
2023-04-21T21:15:31.963Z,2.67
2023-04-21T21:17:59.165Z,2.70
2023-04-21T21:20:26.653Z,2.58
2023-04-21T21:22:53.799Z,3.00
2023-04-21T21:25:21.191Z,2.53
2023-04-21T21:27:48.431Z,3.38
2023-04-21T21:30:16.310Z,3.33
2023-04-21T21:32:44.056Z,3.10
2023-04-21T21:35:12.155Z,2.72
2023-04-21T21:37:40.977Z,2.90
2023-04-21T21:40:08.709Z,2.60
2023-04-21T21:42:35.750Z,2.50
2023-04-21T21:45:02.726Z,2.63
2023-04-21T21:47:29.908Z,2.78
2023-04-21T21:49:58.953Z,2.55
2023-04-21T21:52:28.725Z,2.97
2023-04-21T21:54:57.014Z,2.85
2023-04-21T21:57:24.256Z,2.83
2023-04-21T21:59:51.383Z,3.20
2023-04-21T22:02:18.532Z,2.92
2023-04-21T22:04:46.141Z,3.33
2023-04-21T22:07:13.232Z,6.97
2023-04-21T22:09:41.647Z,3.17
2023-04-21T22:12:09.042Z,2.90
2023-04-21T22:14:36.474Z,3.28
2023-04-21T22:17:03.529Z,3.47
2023-04-21T22:19:31.341Z,3.40
2023-04-21T22:21:58.531Z,3.30
2023-04-21T22:24:25.864Z,3.85
2023-04-21T22:26:53.073Z,3.65
2023-04-21T22:29:20.149Z,3.20
2023-04-21T22:31:47.915Z,3.75
2023-04-21T22:34:19.757Z,3.90
2023-04-21T22:36:46.921Z,3.53
2023-04-21T22:39:14.033Z,3.42
2023-04-21T22:41:41.479Z,3.33
2023-04-21T22:44:08.837Z,2.92
2023-04-21T22:46:36.572Z,3.50
2023-04-21T22:49:04.069Z,2.83
2023-04-21T22:51:32.746Z,3.03
2023-04-21T22:54:00.585Z,2.90
2023-04-21T22:56:29.517Z,3.25
2023-04-21T22:58:56.749Z,3.25
2023-04-21T23:01:23.960Z,3.42
2023-04-21T23:03:51.209Z,3.70
2023-04-21T23:06:18.395Z,4.15
2023-04-21T23:08:45.413Z,3.72
2023-04-21T23:11:12.860Z,3.70
2023-04-21T23:13:40.219Z,3.80
2023-04-21T23:16:07.448Z,3.67
2023-04-21T23:18:34.839Z,3.22
2023-04-21T23:21:01.990Z,3.38
2023-04-21T23:23:29.072Z,3.47
2023-04-21T23:25:56.145Z,3.42
2023-04-21T23:28:24.446Z,3.53
2023-04-21T23:30:51.624Z,3.55
2023-04-21T23:33:18.845Z,3.58
2023-04-21T23:35:45.914Z,3.33
2023-04-21T23:38:13.021Z,3.17
2023-04-21T23:40:40.423Z,3.25
2023-04-21T23:43:07.841Z,3.45
2023-04-21T23:45:34.902Z,2.95
2023-04-21T23:48:01.944Z,3.05
2023-04-21T23:50:29.028Z,3.45
2023-04-21T23:52:56.400Z,3.90
2023-04-21T23:55:23.561Z,3.67
2023-04-21T23:57:50.569Z,3.58
